PTKR  Koror, Palau, NWS Office Airport

Add Bookmark

Federated States of Micronesia

Status
Operational
Latitude Longitude
7° 19' 48" N 134° 28' 47" E
7.330000 134.480000
Local (DST + 9) UTC (GMT + 9)
Oct 21, 2014 07:45 Oct 20, 2014 22:45
Sunrise-Sunset Local UTC
Begin Civil Twilight 05:26 20:26
Sunrise 05:47 20:47
Sunset 05:45 08:45
End Civil Twilight 06:06 09:06

Current Weather

METAR Observed VFR
PTKR 202153Z 00000KT 15SM BKN300 27/26 A2987 Mon, Oct 20, 2014 @ 21:53 UTC
(52 Minutes ago)
Visual Flight Rules
Wind Visibility Clouds Conditions
Calm 24000 meters
  • Broken at 30,000' AGL
  • No significant weather
Temperatures Readings Precipitation
Current Temp 27°C (81°F)
Dewpoint 26°C (79°F)
Heat Index 32°C (89°F)
Humidity 94%
Altimeter 29.87"Hg
Sea Level Pressure 1011.4mb
Field Elevation 98.43'
None Recorded

Additional weather within a 92.6km radius of PTKR

Map ICAO Location
PTRO 8.1km N (360°)

24 Hour Weather History

Loading
-

24 Hour Weather Graphs

Loading
-

CheckWX.com is intended as a tool to help pilots better visualize weather data. It is not intended as a substitute for an official weather briefing obtained from a Flight Service Station. CheckWX.com does not meet the FAA requirements for an official pre-flight weather briefing. Therefore, it's important that pilots still call and obtain an official FSS pre-flight weather briefing.